Data for 01/11/2008

Time Sea-Level Adjusted Pressure Absolute Pressure Temperature Relative Humidity Dew Point   
(mb) (inHg) (mb) (inHg) (C) (F) (%) (C) (F)
00:05 1009 29.8 838 24.75 0.2 32.4 57 -7.4 18.6
00:10 1009 29.8 838 24.75 0.3 32.5 56 -7.6 18.3
00:15 1009 29.8 838 24.75 0.3 32.5 57 -7.4 18.8
00:20 1009 29.8 838 24.75 0.1 32.1 57 -7.4 18.7
00:25 1009 29.8 838 24.75 0.2 32.3 55 -7.8 17.9
00:30 1009 29.8 838 24.75 0.3 32.6 55 -7.7 18.1
00:35 1009 29.8 838 24.75 0.3 32.6 54 -7.8 17.9
00:40 1009 29.8 838 24.75 0.3 32.6 55 -7.6 18.2
00:45 1009 29.8 838 24.75 0.3 32.6 54 -8 17.6
00:50 1009 29.8 838 24.75 0.3 32.6 54 -8 17.7
00:55 1009 29.8 838 24.75 0.3 32.5 54 -8 17.6
01:00 1009 29.8 838 24.75 0.3 32.5 53 -8.1 17.3
01:05 1009 29.8 838 24.75 0.4 32.7 51 -8.5 16.7
01:10 1009 29.8 838 24.75 0.6 33 51 -8.4 16.9
01:15 1009 29.8 838 24.75 0.6 33 51 -8.5 16.7
01:20 1009 29.8 838 24.75 0.6 33.2 51 -8.4 16.8
01:25 1009 29.8 838 24.75 0.7 33.2 51 -8.3 17.1
01:30 1009 29.8 839 24.78 0.5 32.9 53 -8.1 17.4
01:35 1009 29.8 839 24.78 0.3 32.5 53 -8.1 17.4
01:40 1009 29.8 839 24.78 0.3 32.5 54 -8 17.6
01:45 1009 29.8 839 24.78 0.1 32.2 54 -8 17.6
01:50 1009 29.8 839 24.78 0.1 32.1 54 -8.1 17.4
01:55 1009 29.8 838 24.75 0.2 32.3 53 -8.3 17.1
02:00 1009 29.8 838 24.75 0.1 32.3 53 -8.3 17
02:05 1009 29.8 838 24.75 0.2 32.3 52 -8.5 16.7
02:10 1009 29.8 838 24.75 0.3 32.5 51 -8.6 16.6
02:15 1009 29.8 839 24.78 0.5 33 51 -8.5 16.6
02:20 1009 29.8 839 24.78 0.7 33.2 50 -8.5 16.7
02:25 1009 29.8 839 24.78 0.7 33.3 51 -8.3 17
02:30 1009 29.8 839 24.78 0.6 33.1 53 -7.8 17.9
02:35 1009 29.8 839 24.78 0.4 32.7 54 -7.9 17.9
02:40 1010 29.83 839 24.78 0.2 32.4 54 -8.1 17.4
02:45 1010 29.83 839 24.78 0.2 32.4 53 -8.3 17.1
02:50 1010 29.83 839 24.78 0.3 32.5 53 -8.3 17
02:55 1010 29.83 839 24.78 0.2 32.4 51 -8.7 16.4
03:00 1010 29.83 839 24.78 0.4 32.8 51 -8.5 16.8
03:05 1010 29.83 839 24.78 0.5 32.8 50 -8.7 16.4
03:10 1010 29.83 839 24.78 0.7 33.3 49 -8.7 16.3
03:15 1010 29.83 839 24.78 0.9 33.6 50 -8.3 17
03:20 1010 29.83 839 24.78 0.8 33.4 50 -8.4 16.9
03:25 1010 29.83 839 24.78 0.7 33.3 51 -8.2 17.2
03:30 1010 29.83 839 24.78 0.7 33.3 51 -8.4 16.9
03:35 1010 29.83 839 24.78 0.7 33.3 51 -8.4 16.9
03:40 1010 29.83 839 24.78 0.6 33.1 51 -8.4 16.9
03:45 1010 29.83 839 24.78 0.6 33 51 -8.4 16.9
03:50 1010 29.83 839 24.78 0.5 32.8 52 -8.3 17
03:55 1010 29.83 839 24.78 0.4 32.6 52 -8.5 16.7
04:00 1010 29.83 839 24.78 0.5 32.8 51 -8.5 16.6
04:05 1010 29.83 840 24.81 0.6 33 51 -8.3 17
04:10 1010 29.83 840 24.81 0.6 33.1 52 -8.2 17.2
04:15 1010 29.83 840 24.81 0.6 33 51 -8.4 16.9
04:20 1010 29.83 840 24.81 0.7 33.2 50 -8.6 16.5
04:25 1010 29.83 840 24.81 0.8 33.5 50 -8.4 16.8
04:30 1011 29.85 840 24.81 0.8 33.4 52 -8.1 17.4
04:35 1011 29.85 840 24.81 0.7 33.3 52 -8 17.6
04:40 1011 29.85 840 24.81 0.7 33.2 53 -7.8 18
04:45 1011 29.85 840 24.81 0.6 33 54 -7.8 18
04:50 1011 29.85 840 24.81 0.5 32.9 54 -7.7 18.1
04:55 1011 29.85 840 24.81 0.5 32.8 54 -7.7 18.1
05:00 1011 29.85 840 24.81 0.4 32.7 54 -7.8 18
05:05 1011 29.85 840 24.81 0.4 32.7 54 -7.8 18
05:10 1011 29.85 840 24.81 0.3 32.6 54 -7.9 17.8
05:15 1011 29.85 840 24.81 0.4 32.7 54 -8 17.6
05:20 1011 29.85 840 24.81 0.5 32.8 54 -7.8 17.9
05:25 1011 29.85 840 24.81 0.4 32.8 54 -7.8 18
05:30 1011 29.85 840 24.81 0.5 32.9 54 -7.8 17.9
05:35 1011 29.85 840 24.81 0.5 32.9 55 -7.6 18.3
05:40 1011 29.85 840 24.81 0.4 32.8 56 -7.4 18.8
05:45 1011 29.85 840 24.81 0.4 32.7 56 -7.4 18.6
05:50 1011 29.85 840 24.81 0.5 32.8 56 -7.3 18.8
05:55 1011 29.85 840 24.81 0.4 32.8 56 -7.4 18.7
06:00 1011 29.85 840 24.81 0.4 32.8 55 -7.7 18.2
06:05 1011 29.85 840 24.81 0.6 33 55 -7.5 18.5
06:10 1011 29.85 840 24.81 0.5 32.9 55 -7.6 18.3
06:15 1011 29.85 840 24.81 0.5 32.9 55 -7.6 18.4
06:20 1011 29.85 840 24.81 0.4 32.7 56 -7.4 18.6
06:25 1011 29.85 840 24.81 0.3 32.5 56 -7.5 18.6
06:30 1011 29.85 840 24.81 0.3 32.6 54 -7.8 17.9
06:35 1011 29.85 840 24.81 0.5 32.8 55 -7.7 18.2
06:40 1011 29.85 840 24.81 0.3 32.6 55 -7.8 18
06:45 1011 29.85 840 24.81 0.4 32.7 53 -8 17.6
06:50 1011 29.85 840 24.81 0.4 32.8 54 -7.8 18
06:55 1011 29.85 840 24.81 0.3 32.5 54 -7.9 17.8
07:00 1011 29.85 840 24.81 0.3 32.5 54 -8 17.6
07:05 1011 29.85 840 24.81 0.3 32.5 54 -8 17.5
07:10 1011 29.85 840 24.81 0.4 32.7 52 -8.3 17.1
07:15 1011 29.85 840 24.81 0.5 33 52 -8.2 17.2
07:20 1011 29.85 840 24.81 0.5 32.9 52 -8.3 17.1
07:25 1011 29.85 840 24.81 0.5 32.8 52 -8.3 17.1
07:30 1011 29.85 840 24.81 0.4 32.7 52 -8.3 17.1
07:35 1011 29.85 841 24.83 0.3 32.6 53 -8.1 17.4
07:40 1011 29.85 841 24.83 0.2 32.4 54 -8 17.7
07:45 1011 29.85 840 24.81 0.1 32.2 54 -8.1 17.4
07:50 1011 29.85 840 24.81 0.1 32.2 54 -8.2 17.2
07:55 1011 29.85 840 24.81 0.2 32.3 53 -8.3 17
08:00 1011 29.85 840 24.81 0.3 32.6 51 -8.7 16.4
08:05 1011 29.85 840 24.81 0.4 32.8 51 -8.6 16.5
08:10 1011 29.85 841 24.83 0.4 32.8 51 -8.7 16.4
08:15 1011 29.85 841 24.83 0.5 32.9 49 -9.1 15.7
08:20 1011 29.85 840 24.81 0.6 33 50 -8.7 16.3
08:25 1011 29.85 841 24.83 0.7 33.2 48 -9.1 15.7
08:30 1011 29.85 841 24.83 0.8 33.4 48 -9.1 15.6
08:35 1011 29.85 841 24.83 0.9 33.6 47 -9.1 15.7
08:40 1011 29.85 841 24.83 0.9 33.6 48 -8.9 15.9
08:45 1011 29.85 841 24.83 0.9 33.7 47 -9 15.7
08:50 1012 29.88 841 24.83 0.9 33.7 48 -9 15.8
08:55 1012 29.88 841 24.83 0.9 33.7 47 -9.1 15.7
09:00 1012 29.88 841 24.83 0.9 33.6 48 -8.8 16.1
09:05 1012 29.88 841 24.83 0.8 33.4 49 -8.8 16.2
09:10 1012 29.88 841 24.83 0.8 33.4 49 -8.9 16
09:15 1012 29.88 841 24.83 0.9 33.6 48 -8.9 16
09:20 1012 29.88 841 24.83 0.9 33.6 49 -8.8 16.2
09:25 1012 29.88 841 24.83 0.9 33.6 47 -9.2 15.4
09:30 1012 29.88 841 24.83 0.9 33.6 49 -8.7 16.4
09:35 1012 29.88 841 24.83 0.9 33.6 49 -8.6 16.5
09:40 1012 29.88 841 24.83 0.8 33.4 49 -8.7 16.4
09:45 1012 29.88 841 24.83 0.8 33.4 50 -8.5 16.8
09:50 1012 29.88 841 24.83 0.7 33.3 51 -8.4 16.9
09:55 1012 29.88 841 24.83 0.8 33.4 51 -8.3 17.1
10:00 1012 29.88 841 24.83 0.8 33.4 52 -7.9 17.8
10:05 1012 29.88 842 24.86 0.7 33.3 52 -8.1 17.5
10:10 1012 29.88 842 24.86 0.8 33.5 52 -7.9 17.7
10:15 1012 29.88 842 24.86 0.9 33.5 51 -8.1 17.4
10:20 1012 29.88 842 24.86 0.9 33.7 51 -8.1 17.3
10:25 1013 29.91 842 24.86 1.1 33.9 51 -7.9 17.7
10:30 1013 29.91 842 24.86 1 33.9 52 -7.8 17.9
10:35 1013 29.91 842 24.86 1 33.8 51 -8 17.7
10:40 1013 29.91 842 24.86 1 33.8 51 -7.9 17.7
10:45 1013 29.91 842 24.86 1.1 33.9 49 -8.4 17
10:50 1013 29.91 842 24.86 1.3 34.3 49 -8.4 16.9
10:55 1013 29.91 842 24.86 1.3 34.3 48 -8.4 16.8
11:00 1013 29.91 842 24.86 1.4 34.5 48 -8.3 17
11:05 1013 29.91 842 24.86 1.5 34.7 49 -8.1 17.5
11:10 1013 29.91 842 24.86 1.6 34.9 47 -8.5 16.6
11:15 1013 29.91 842 24.86 1.7 35.1 47 -8.3 17
11:20 1013 29.91 842 24.86 1.8 35.2 47 -8.5 16.7
11:25 1013 29.91 842 24.86 1.8 35.3 47 -8.2 17.2
11:30 1013 29.91 842 24.86 1.8 35.2 48 -8.1 17.5
11:35 1013 29.91 842 24.86 1.9 35.4 48 -8 17.5
11:40 1013 29.91 842 24.86 2 35.5 49 -7.7 18.2
11:45 1013 29.91 842 24.86 2.1 35.8 49 -7.5 18.5
11:50 1013 29.91 842 24.86 2.3 36.1 49 -7.4 18.8
11:55 1013 29.91 842 24.86 2.4 36.4 49 -7.2 19
12:00 1013 29.91 842 24.86 2.5 36.5 48 -7.4 18.7
12:05 1013 29.91 842 24.86 2.6 36.6 47 -7.6 18.3
12:10 1013 29.91 842 24.86 2.6 36.7 47 -7.6 18.3
12:15 1013 29.91 842 24.86 2.5 36.5 46 -7.9 17.8
12:20 1013 29.91 842 24.86 2.7 36.9 46 -7.8 17.9
12:25 1013 29.91 842 24.86 2.4 36.3 48 -7.4 18.6
12:30 1013 29.91 842 24.86 2 35.6 47 -8.3 17.1
12:35 1013 29.91 842 24.86 1.9 35.5 47 -8.3 17
12:40 1013 29.91 842 24.86 2 35.6 46 -8.4 16.9
12:45 1013 29.91 842 24.86 2.2 35.9 46 -8.4 16.9
12:50 1013 29.91 842 24.86 2.4 36.3 46 -7.9 17.7
12:55 1013 29.91 842 24.86 2.5 36.6 46 -8 17.6
13:00 1013 29.91 842 24.86 2.8 37 45 -8.1 17.3
13:05 1013 29.91 842 24.86 3 37.4 44 -8.2 17.3
13:10 1013 29.91 842 24.86 3.2 37.8 43 -8.1 17.4
13:15 1013 29.91 842 24.86 3.2 37.8 44 -7.8 18
13:20 1013 29.91 842 24.86 3.2 37.8 42 -8.5 16.7
13:25 1013 29.91 842 24.86 3.2 37.7 44 -8.1 17.4
13:30 1013 29.91 842 24.86 3.2 37.7 45 -7.7 18.1
13:35 1013 29.91 842 24.86 3 37.5 45 -7.7 18.2
13:40 1013 29.91 842 24.86 3.1 37.6 45 -7.7 18.1
13:45 1013 29.91 842 24.86 3.2 37.7 46 -7.4 18.7
13:50 1013 29.91 842 24.86 3.2 37.8 46 -7.4 18.8
13:55 1013 29.91 842 24.86 3.2 37.7 47 -7.1 19.1
14:00 1012 29.88 842 24.86 3 37.4 49 -6.8 19.7
14:05 1012 29.88 842 24.86 2.8 37 47 -7.4 18.7
14:10 1012 29.88 842 24.86 3 37.3 48 -7.1 19.2
14:15 1012 29.88 842 24.86 3 37.5 47 -7.1 19.3
14:20 1012 29.88 842 24.86 2.9 37.3 49 -6.8 19.7
14:25 1012 29.88 842 24.86 2.9 37.2 47 -7.4 18.7
14:30 1012 29.88 842 24.86 3 37.4 46 -7.4 18.6
14:35 1012 29.88 842 24.86 3.1 37.5 47 -7.3 18.9
14:40 1012 29.88 842 24.86 3.1 37.6 47 -7.1 19.1
14:45 1012 29.88 842 24.86 3.1 37.6 47 -7.1 19.2
14:50 1013 29.91 842 24.86 3.1 37.6 47 -7.1 19.2
14:55 1013 29.91 842 24.86 3.1 37.5 48 -6.8 19.8
15:00 1013 29.91 842 24.86 3 37.4 49 -6.8 19.8
15:05 1013 29.91 842 24.86 2.9 37.3 50 -6.5 20.2
15:10 1013 29.91 842 24.86 2.9 37.2 50 -6.4 20.4
15:15 1013 29.91 842 24.86 2.9 37.2 50 -6.6 20.2
15:20 1013 29.91 842 24.86 2.8 37.1 50 -6.7 20
15:25 1013 29.91 842 24.86 2.8 37.1 50 -6.7 20
15:30 1013 29.91 842 24.86 2.8 37 50 -6.6 20.1
15:35 1013 29.91 842 24.86 2.8 37.1 50 -6.5 20.4
15:40 1013 29.91 842 24.86 2.9 37.3 51 -6.3 20.7
15:45 1013 29.91 842 24.86 3 37.4 51 -6.3 20.7
15:50 1013 29.91 842 24.86 3 37.5 50 -6.3 20.7
15:55 1013 29.91 843 24.89 2.9 37.2 53 -5.7 21.8
16:00 1013 29.91 843 24.89 2.4 36.4 56 -5.5 22
16:05 1013 29.91 843 24.89 2.3 36.1 57 -5.3 22.5
16:10 1013 29.91 843 24.89 1.9 35.3 61 -4.8 23.4
16:15 1014 29.94 843 24.89 1.5 34.7 67 -3.9 25
16:20 1014 29.94 843 24.89 0.9 33.7 72 -3.5 25.7
16:25 1014 29.94 843 24.89 0.7 33.3 74 -3.4 25.8
16:30 1014 29.94 843 24.89 0.7 33.3 74 -3.5 25.7
16:35 1014 29.94 843 24.89 0.7 33.2 74 -3.5 25.7
16:40 1014 29.94 843 24.89 0.7 33.3 72 -3.8 25.2
16:45 1014 29.94 843 24.89 0.9 33.6 71 -3.8 25.2
16:50 1014 29.94 843 24.89 1 33.7 72 -3.6 25.5
16:55 1014 29.94 843 24.89 1 33.8 70 -3.8 25.1
17:00 1014 29.94 843 24.89 1 33.9 71 -3.7 25.3
17:05 1014 29.94 844 24.92 1.2 34.1 69 -3.9 25
17:10 1015 29.97 844 24.92 1.4 34.5 69 -3.7 25.3
17:15 1015 29.97 844 24.92 1 33.8 80 -2.1 28.2
17:20 1015 29.97 844 24.92 0.4 32.8 83 -2.1 28.2
17:25 1015 29.97 844 24.92 0.3 32.6 84 -2.1 28.3
17:30 1015 29.97 844 24.92 0.3 32.5 85 -1.9 28.5
17:35 1015 29.97 844 24.92 0.2 32.4 85 -1.9 28.5
17:40 1015 29.97 844 24.92 0.2 32.3 86 -1.9 28.6
17:45 1015 29.97 844 24.92 0 32.1 87 -1.9 28.5
17:50 1015 29.97 844 24.92 -0.1 31.8 87 -2 28.4
17:55 1015 29.97 844 24.92 -0.1 31.7 87 -2 28.3
18:00 1015 29.97 844 24.92 -0.2 31.7 89 -1.8 28.8
18:05 1015 29.97 844 24.92 -0.5 31.1 91 -1.8 28.7
18:10 1015 29.97 844 24.92 -0.5 31.2 91 -1.7 28.9
18:15 1015 29.97 844 24.92 -0.5 31.1 92 -1.6 29.1
18:20 1015 29.97 844 24.92 -0.5 31.2 92 -1.6 29.2
18:25 1015 29.97 844 24.92 -0.4 31.2 92 -1.6 29.1
18:30 1015 29.97 844 24.92 -0.4 31.2 92 -1.5 29.2
18:35 1015 29.97 844 24.92 -0.6 30.9 95 -1.3 29.6
18:40 1015 29.97 844 24.92 -0.9 30.4 96 -1.5 29.4
18:45 1015 29.97 844 24.92 -1 30.1 97 -1.5 29.3
18:50 1015 29.97 844 24.92 -0.9 30.3 96 -1.5 29.3
18:55 1015 29.97 844 24.92 -0.8 30.6 95 -1.5 29.3
19:00 1015 29.97 844 24.92 -0.7 30.8 94 -1.6 29.2
19:05 1015 29.97 844 24.92 -0.7 30.8 94 -1.5 29.2
19:10 1015 29.97 844 24.92 -0.7 30.8 94 -1.5 29.2
19:15 1016 30 845 24.95 -0.7 30.7 94 -1.5 29.3
19:20 1016 30 845 24.95 -0.6 31 93 -1.5 29.3
19:25 1016 30 845 24.95 -0.4 31.2 94 -1.4 29.6
19:30 1016 30 845 24.95 -0.5 31.1 94 -1.4 29.5
19:35 1016 30 845 24.95 -0.8 30.6 95 -1.5 29.3
19:40 1016 30 845 24.95 -0.8 30.5 95 -1.5 29.3
19:45 1016 30 845 24.95 -0.9 30.3 95 -1.6 29.1
19:50 1016 30 845 24.95 -1 30.3 95 -1.6 29.1
19:55 1016 30 845 24.95 -1 30.3 95 -1.6 29.1
20:00 1016 30 845 24.95 -0.8 30.5 95 -1.6 29.1
20:05 1016 30 845 24.95 -0.8 30.6 93 -1.7 28.9
20:10 1016 30 845 24.95 -0.8 30.6 94 -1.7 29
20:15 1016 30 845 24.95 -1 30.2 95 -1.7 28.9
20:20 1016 30 845 24.95 -1.1 30.1 95 -1.8 28.7
20:25 1016 30 845 24.95 -1 30.1 94 -1.8 28.7
20:30 1016 30 845 24.95 -1 30.3 95 -1.7 28.9
20:35 1016 30 845 24.95 -1 30.3 95 -1.7 29
20:40 1016 30 845 24.95 -1.1 30.1 95 -1.7 28.9
20:45 1016 30 845 24.95 -1.2 29.8 96 -1.8 28.8
20:50 1016 30 845 24.95 -1.3 29.7 96 -1.9 28.7
20:55 1016 30 845 24.95 -1.2 29.8 96 -1.9 28.6
21:00 1016 30 845 24.95 -1.3 29.7 96 -1.9 28.6
21:05 1016 30 845 24.95 -1.2 29.8 95 -1.9 28.6
21:10 1016 30 845 24.95 -1.1 30 94 -2 28.4
21:15 1016 30 845 24.95 -0.9 30.3 92 -2.1 28.3
21:20 1016 30 845 24.95 -0.8 30.6 90 -2.2 28
21:25 1016 30 845 24.95 -0.5 31 88 -2.3 27.8
21:30 1016 30 845 24.95 -0.3 31.4 86 -2.4 27.7
21:35 1016 30 845 24.95 -0.1 31.8 85 -2.3 27.9
21:40 1016 30 845 24.95 0.1 32.1 84 -2.4 27.7
21:45 1016 30 845 24.95 0.1 32.2 88 -1.6 29
21:50 1016 30 846 24.98 -0.6 31 93 -1.6 29.2
21:55 1016 30 846 24.98 -1 30.3 95 -1.7 29
22:00 1016 30 846 24.98 -1.1 30 96 -1.7 28.9
22:05 1016 30 846 24.98 -1.1 30.1 95 -1.8 28.7
22:10 1017 30.03 846 24.98 -0.8 30.5 94 -1.7 28.9
22:15 1017 30.03 846 24.98 -0.7 30.8 92 -1.8 28.8
22:20 1017 30.03 846 24.98 -0.5 31.1 91 -1.8 28.8
22:25 1017 30.03 846 24.98 -0.4 31.2 91 -1.7 29
22:30 1017 30.03 846 24.98 -0.4 31.3 88 -2.1 28.3
22:35 1017 30.03 846 24.98 -0.3 31.4 88 -2.1 28.2
22:40 1017 30.03 846 24.98 -0.3 31.4 86 -2.3 27.8
22:45 1017 30.03 846 24.98 -0.3 31.5 87 -2.2 28
22:50 1017 30.03 846 24.98 -0.4 31.3 86 -2.5 27.5
22:55 1017 30.03 846 24.98 -0.2 31.6 83 -2.8 27
23:00 1017 30.03 846 24.98 -0.1 31.9 83 -2.6 27.4
23:05 1017 30.03 846 24.98 -0.1 31.9 82 -2.7 27.1
23:10 1017 30.03 846 24.98 -0.1 31.9 84 -2.5 27.6
23:15 1017 30.03 846 24.98 -0.1 31.8 83 -2.6 27.3
23:20 1017 30.03 846 24.98 -0.1 31.7 83 -2.7 27.1
23:25 1017 30.03 846 24.98 -0.2 31.6 84 -2.6 27.3
23:30 1017 30.03 846 24.98 -0.2 31.7 86 -2.3 27.9
23:35 1017 30.03 846 24.98 -0.2 31.6 85 -2.4 27.6
23:40 1017 30.03 846 24.98 -0.3 31.5 87 -2.2 28
23:45 1017 30.03 847 25.01 -0.4 31.2 87 -2.3 27.8
23:50 1017 30.03 847 25.01 -0.5 31.2 86 -2.5 27.6
23:55 1018 30.06 847 25.01 -0.5 31 89 -2.2 28.1
24:00 1017 30.03 847 25.01 -0.7 30.7 91 -2.1 28.2